Atherton, CA (94027)

8:29 AM PDT on August 27, 2016 (GMT -0700)
Hobart Street | | Change Station

Elev 0 ft 37.44 °N, 122.19 °W | Updated 4 minutes ago

Overcast
Overcast
61.5 °F
Feels Like 61.5 °F
N
0.6
Wind Variable Wind from NNW
Gusts 1.2 mph

Today
High -- | Low -- °F
--% Chance of Precip.
Yesterday
High -- | Low -- °F
Precip. -- in
Pressure 30.01 in
Visibility 10.0 miles
Clouds Overcast 1900 ft
Dew Point 55 °F
Humidity 78%
Rainfall 0.00 in
Snow Depth Not available.
6:35 AM 7:44 PM
Waning Crescent, 23% visible
METAR KSQL 271450Z 00000KT 10SM OVC019 16/12 A3001
Pressure 30.01 in
Visibility 10.0 miles
Clouds Overcast 1900 ft
Dew Point 55 °F
Humidity 78%
Rainfall 0.00 in
Snow Depth Not available.
6:35 AM 7:44 PM
Waning Crescent, 23% visible
METAR KSQL 271450Z 00000KT 10SM OVC019 16/12 A3001

10-Day Weather Forecast

Almanac

Astronomy

Aug. 27, 2016 Rise Set
Actual Time
Civil Twilight
Nautical Twilight
Astronomical Twilight
Moon
Length of Visible Light
Length of Day
Tomorrow will be .
, % of the Moon is Illuminated

Today's Extremes

State Highs State Lows

Community

WunderPhotos

Upload Photos

1,935,356 photos uploaded!

WunderBlog® & News

Nearby

Air Quality

  Air Quality AQ Index Pollutant
Not available.

Snow Depth

Station Depth Elevation

Earthquake Activity

City Distance Mag. Time & Date
Minimum magnitude displayed is 2.5.

Coastal Water Temperatures

Place Temperature

Stations

Nearby Weather Stations

Station Location Temp. Windchill Dew Point Humidity Wind Precip. Elev Updated Type
                   

Watches & Warnings

There are currently no watches in effect.